CheckWX is a tool to help pilots better visualize weather data.  It is not intended as a substitute for an official pre-flight weather briefing.

23:38:13 UTC

KDYR METAR
Dyersburg Regional Airport
Dyersburg, Tennessee, USA
Current

42 mins ago

KDYR 182256Z AUTO 10003KT 10SM CLR 19/07 A2990 RMK AO2 SLP130 T01890067
Observed
Oct-18 @ 22:56 UTC
Wind
  • 100° at 3 KTS
Visibility
10 SM
Flight Rules
VFR
Cloud Levels
  • Clear skies
Temperature
19°C / 66°F
Dewpoint
C / 45°F
Humidity
46%
Altimeter
29.9" Hg
Pressure
1012.52 hPa
Previous

2 hours ago

KDYR 182156Z AUTO 08004KT 10SM CLR 21/06 A2992 RMK AO2 SLP136 T02060056
Observed
Oct-18 @ 21:56 UTC
Wind
  • 080° at 4 KTS
Visibility
10 SM
Flight Rules
VFR
Cloud Levels
  • Clear skies
Temperature
21°C / 70°F
Dewpoint
C / 43°F
Humidity
38%
Altimeter
29.92" Hg
Pressure
1013.22 hPa
Previous

3 hours ago

KDYR 182056Z AUTO VRB04KT 10SM CLR 21/06 A2993 RMK AO2 SLP140 T02060056 56029
Observed
Oct-18 @ 20:56 UTC
Wind
  • Variable at 4 KTS
Visibility
10 SM
Flight Rules
VFR
Cloud Levels
  • Clear skies
Temperature
21°C / 70°F
Dewpoint
C / 43°F
Humidity
38%
Altimeter
29.93" Hg
Pressure
1013.52 hPa